XAV9234 USMU-UOOO
Flight info
| Callsign | XAV9234 |
|---|---|
| Flight time | 1h 19m |
| Altitude | 19000 |
| Route | DIDET W77 GT W103 ROLGA |
| Aircraft | AN12/M-SDE2E3FGRY/H |
Departure
| Time | 2026-04-16 14:47 |
|---|---|
| Airport | Novy Urengoy Airport (USMU) |
Arrival
| Time | 2026-04-16 16:06 |
|---|---|
| Airport | Alykel International Airport (UOOO) |
| Time | Latitude | Longitude | Altitude | Speed | Heading |
|---|---|---|---|---|---|
| 2026-04-16 14:22 | 66.07318 | 76.51552 | 219 ft | 0 kts | 14° |
| 2026-04-16 14:25 | 66.07315 | 76.51550 | 219 ft | 3 kts | 14° |
| 2026-04-16 14:25 | 66.07294 | 76.51538 | 219 ft | 3 kts | 13° |
| 2026-04-16 14:26 | 66.07283 | 76.51519 | 219 ft | 3 kts | 65° |
| 2026-04-16 14:26 | 66.07278 | 76.51471 | 219 ft | 3 kts | 110° |
| 2026-04-16 14:26 | 66.07280 | 76.51458 | 219 ft | 0 kts | 109° |
| 2026-04-16 14:30 | 66.07280 | 76.51459 | 219 ft | 0 kts | 109° |
| 2026-04-16 14:36 | 66.07274 | 76.51497 | 219 ft | 6 kts | 110° |
| 2026-04-16 14:36 | 66.07244 | 76.51679 | 219 ft | 16 kts | 107° |
| 2026-04-16 14:37 | 66.07214 | 76.51931 | 219 ft | 13 kts | 107° |
| 2026-04-16 14:37 | 66.07208 | 76.51980 | 219 ft | 10 kts | 108° |
| 2026-04-16 14:38 | 66.07202 | 76.52034 | 219 ft | 0 kts | 104° |
| 2026-04-16 14:39 | 66.07201 | 76.52038 | 219 ft | 0 kts | 104° |
| 2026-04-16 14:39 | 66.07200 | 76.52048 | 219 ft | 1 kts | 104° |
| 2026-04-16 14:39 | 66.07198 | 76.52071 | 219 ft | 2 kts | 105° |
| 2026-04-16 14:40 | 66.07194 | 76.52103 | 219 ft | 2 kts | 107° |
| 2026-04-16 14:40 | 66.07177 | 76.52137 | 219 ft | 5 kts | 169° |
| 2026-04-16 14:40 | 66.07130 | 76.52133 | 219 ft | 8 kts | 186° |
| 2026-04-16 14:40 | 66.07067 | 76.52090 | 219 ft | 10 kts | 199° |
| 2026-04-16 14:41 | 66.07020 | 76.52054 | 219 ft | 3 kts | 192° |
| 2026-04-16 14:41 | 66.07004 | 76.52066 | 219 ft | 2 kts | 144° |
| 2026-04-16 14:41 | 66.06995 | 76.52098 | 219 ft | 3 kts | 121° |
| 2026-04-16 14:41 | 66.06983 | 76.52155 | 219 ft | 6 kts | 115° |
| 2026-04-16 14:42 | 66.06966 | 76.52269 | 219 ft | 7 kts | 107° |
| 2026-04-16 14:42 | 66.06926 | 76.52575 | 219 ft | 27 kts | 108° |
| 2026-04-16 14:42 | 66.06875 | 76.52945 | 219 ft | 25 kts | 108° |
| 2026-04-16 14:42 | 66.06820 | 76.53379 | 219 ft | 28 kts | 109° |
| 2026-04-16 14:43 | 66.06768 | 76.53797 | 219 ft | 19 kts | 107° |
| 2026-04-16 14:43 | 66.06733 | 76.54061 | 219 ft | 19 kts | 108° |
| 2026-04-16 14:43 | 66.06700 | 76.54329 | 219 ft | 11 kts | 107° |
| 2026-04-16 14:43 | 66.06689 | 76.54439 | 219 ft | 5 kts | 89° |
| 2026-04-16 14:44 | 66.06701 | 76.54545 | 219 ft | 9 kts | 72° |
| 2026-04-16 14:44 | 66.06673 | 76.54628 | 219 ft | 9 kts | 238° |
| 2026-04-16 14:44 | 66.06678 | 76.54504 | 219 ft | 0 kts | 286° |
| 2026-04-16 14:45 | 66.06678 | 76.54503 | 219 ft | 0 kts | 286° |
| 2026-04-16 14:45 | 66.06678 | 76.54502 | 219 ft | 0 kts | 286° |
| 2026-04-16 14:46 | 66.06692 | 76.54388 | 219 ft | 33 kts | 289° |
| 2026-04-16 14:46 | 66.06849 | 76.53184 | 220 ft | 109 kts | 288° |
| 2026-04-16 14:46 | 66.07121 | 76.51034 | 322 ft | 144 kts | 290° |
| 2026-04-16 14:46 | 66.07409 | 76.48587 | 687 ft | 151 kts | 289° |
| 2026-04-16 14:47 | 66.07690 | 76.45984 | 1034 ft | 165 kts | 290° |
| 2026-04-16 14:47 | 66.08286 | 76.43533 | 1383 ft | 169 kts | 313° |
| 2026-04-16 14:47 | 66.09248 | 76.41767 | 1692 ft | 176 kts | 332° |
| 2026-04-16 14:47 | 66.10413 | 76.40902 | 2064 ft | 175 kts | 353° |
| 2026-04-16 14:48 | 66.11613 | 76.41196 | 2464 ft | 174 kts | 13° |
| 2026-04-16 14:48 | 66.12684 | 76.42560 | 2870 ft | 175 kts | 32° |
| 2026-04-16 14:48 | 66.13630 | 76.44429 | 3306 ft | 173 kts | 34° |
| 2026-04-16 14:48 | 66.14556 | 76.46231 | 3836 ft | 165 kts | 33° |
| 2026-04-16 14:49 | 66.15437 | 76.47951 | 4361 ft | 160 kts | 36° |
| 2026-04-16 14:49 | 66.16286 | 76.49840 | 4603 ft | 172 kts | 37° |
| 2026-04-16 14:49 | 66.17212 | 76.51895 | 4781 ft | 183 kts | 38° |
| 2026-04-16 14:49 | 66.18149 | 76.53965 | 5171 ft | 182 kts | 38° |
| 2026-04-16 14:50 | 66.19088 | 76.56026 | 5592 ft | 179 kts | 38° |
| 2026-04-16 14:50 | 66.20023 | 76.58056 | 5992 ft | 178 kts | 38° |
| 2026-04-16 14:50 | 66.20979 | 76.60104 | 6347 ft | 181 kts | 37° |
| 2026-04-16 14:50 | 66.21944 | 76.62115 | 6595 ft | 187 kts | 37° |
| 2026-04-16 14:51 | 66.22978 | 76.64247 | 6853 ft | 194 kts | 37° |
| 2026-04-16 14:51 | 66.24019 | 76.66381 | 7157 ft | 198 kts | 37° |
| 2026-04-16 14:51 | 66.25092 | 76.68531 | 7480 ft | 200 kts | 36° |
| 2026-04-16 14:51 | 66.26188 | 76.70684 | 7832 ft | 201 kts | 36° |
| 2026-04-16 14:53 | 66.34042 | 76.86065 | 10122 ft | 209 kts | 36° |
| 2026-04-16 14:53 | 66.35179 | 76.88329 | 10421 ft | 210 kts | 36° |
| 2026-04-16 14:54 | 66.36323 | 76.90608 | 10717 ft | 211 kts | 36° |
| 2026-04-16 14:54 | 66.37474 | 76.92880 | 11008 ft | 212 kts | 35° |
| 2026-04-16 14:54 | 66.38641 | 76.95148 | 11292 ft | 212 kts | 35° |
| 2026-04-16 14:54 | 66.39797 | 76.97386 | 11568 ft | 213 kts | 34° |
| 2026-04-16 14:55 | 66.40988 | 76.99645 | 11844 ft | 214 kts | 34° |
| 2026-04-16 14:55 | 66.42189 | 77.01894 | 12117 ft | 215 kts | 33° |
| 2026-04-16 14:55 | 66.43384 | 77.04080 | 12376 ft | 216 kts | 33° |
| 2026-04-16 14:55 | 66.44610 | 77.06247 | 12640 ft | 216 kts | 31° |
| 2026-04-16 14:56 | 66.45869 | 77.08306 | 12897 ft | 216 kts | 29° |
| 2026-04-16 14:56 | 66.47149 | 77.10305 | 13153 ft | 217 kts | 29° |
| 2026-04-16 14:56 | 66.48431 | 77.12300 | 13401 ft | 217 kts | 29° |
| 2026-04-16 14:56 | 66.49713 | 77.14304 | 13644 ft | 218 kts | 29° |
| 2026-04-16 14:57 | 66.50999 | 77.16320 | 13885 ft | 218 kts | 29° |
| 2026-04-16 14:57 | 66.52291 | 77.18352 | 14113 ft | 219 kts | 29° |
| 2026-04-16 14:57 | 66.53584 | 77.20388 | 14343 ft | 219 kts | 28° |
| 2026-04-16 14:57 | 66.54886 | 77.22428 | 14569 ft | 220 kts | 28° |
| 2026-04-16 14:58 | 66.56186 | 77.24453 | 14785 ft | 220 kts | 28° |
| 2026-04-16 14:58 | 66.58794 | 77.28456 | 15250 ft | 219 kts | 28° |
| 2026-04-16 14:58 | 66.60091 | 77.30454 | 15476 ft | 219 kts | 28° |
| 2026-04-16 14:59 | 66.61387 | 77.32458 | 15710 ft | 218 kts | 28° |
| 2026-04-16 14:59 | 66.62672 | 77.34452 | 15934 ft | 217 kts | 28° |
| 2026-04-16 14:59 | 66.63960 | 77.36457 | 16149 ft | 217 kts | 28° |
| 2026-04-16 14:59 | 66.65252 | 77.38451 | 16356 ft | 218 kts | 27° |
| 2026-04-16 15:00 | 66.66536 | 77.40397 | 16553 ft | 218 kts | 27° |
| 2026-04-16 15:00 | 66.67840 | 77.42366 | 16747 ft | 219 kts | 27° |
| 2026-04-16 15:00 | 66.69165 | 77.44363 | 16941 ft | 219 kts | 27° |
| 2026-04-16 15:00 | 66.70459 | 77.46320 | 17133 ft | 220 kts | 27° |
| 2026-04-16 15:01 | 66.71771 | 77.48311 | 17327 ft | 220 kts | 27° |
| 2026-04-16 15:01 | 66.73086 | 77.50305 | 17516 ft | 220 kts | 27° |
| 2026-04-16 15:01 | 66.74418 | 77.52326 | 17699 ft | 221 kts | 27° |
| 2026-04-16 15:01 | 66.75722 | 77.54311 | 17875 ft | 222 kts | 27° |
| 2026-04-16 15:02 | 66.77049 | 77.56305 | 18052 ft | 222 kts | 26° |
| 2026-04-16 15:02 | 66.78386 | 77.58275 | 18226 ft | 223 kts | 26° |
| 2026-04-16 15:02 | 66.79744 | 77.60266 | 18399 ft | 223 kts | 26° |
| 2026-04-16 15:02 | 66.81069 | 77.62214 | 18565 ft | 224 kts | 26° |
| 2026-04-16 15:03 | 66.82413 | 77.64228 | 18741 ft | 224 kts | 26° |
| 2026-04-16 15:03 | 66.83758 | 77.66225 | 18919 ft | 224 kts | 26° |
| 2026-04-16 15:03 | 66.85101 | 77.68210 | 19088 ft | 224 kts | 26° |
| 2026-04-16 15:03 | 66.86449 | 77.70202 | 19249 ft | 224 kts | 26° |
| 2026-04-16 15:04 | 66.87791 | 77.72246 | 19401 ft | 225 kts | 27° |
| 2026-04-16 15:04 | 66.89123 | 77.74350 | 19554 ft | 226 kts | 27° |
| 2026-04-16 15:04 | 66.90466 | 77.76447 | 19706 ft | 226 kts | 27° |
| 2026-04-16 15:04 | 66.91811 | 77.78527 | 19857 ft | 227 kts | 27° |
| 2026-04-16 15:05 | 66.93159 | 77.80610 | 20013 ft | 227 kts | 27° |
| 2026-04-16 15:05 | 66.94510 | 77.82692 | 20166 ft | 227 kts | 27° |
| 2026-04-16 15:05 | 66.95887 | 77.84763 | 20313 ft | 227 kts | 26° |
| 2026-04-16 15:05 | 66.97252 | 77.86791 | 20455 ft | 227 kts | 26° |
| 2026-04-16 15:06 | 66.98630 | 77.88778 | 20597 ft | 227 kts | 25° |
| 2026-04-16 15:06 | 66.99987 | 77.90770 | 20728 ft | 229 kts | 28° |
| 2026-04-16 15:06 | 67.00883 | 77.92300 | 20805 ft | 230 kts | 30° |
| 2026-04-16 15:06 | 67.02191 | 77.94690 | 20935 ft | 231 kts | 32° |
| 2026-04-16 15:07 | 67.03487 | 77.97123 | 21075 ft | 231 kts | 32° |
| 2026-04-16 15:07 | 67.05234 | 78.00351 | 21115 ft | 238 kts | 31° |
| 2026-04-16 15:07 | 67.06157 | 78.02031 | 21048 ft | 244 kts | 31° |
| 2026-04-16 15:07 | 67.08059 | 78.05224 | 20991 ft | 247 kts | 28° |
| 2026-04-16 15:08 | 67.09051 | 78.06780 | 21002 ft | 248 kts | 28° |
| 2026-04-16 15:08 | 67.10533 | 78.09060 | 21010 ft | 249 kts | 27° |
| 2026-04-16 15:08 | 67.12008 | 78.11310 | 21012 ft | 251 kts | 27° |
| 2026-04-16 15:08 | 67.13522 | 78.13655 | 21014 ft | 252 kts | 28° |
| 2026-04-16 15:09 | 67.15022 | 78.16012 | 21015 ft | 253 kts | 28° |
| 2026-04-16 15:09 | 67.16526 | 78.18390 | 21016 ft | 255 kts | 28° |
| 2026-04-16 15:09 | 67.18042 | 78.20790 | 21017 ft | 256 kts | 28° |
| 2026-04-16 15:09 | 67.19560 | 78.23190 | 21018 ft | 257 kts | 28° |
| 2026-04-16 15:10 | 67.21083 | 78.25623 | 21019 ft | 258 kts | 29° |
| 2026-04-16 15:10 | 67.22604 | 78.28103 | 21020 ft | 259 kts | 29° |
| 2026-04-16 15:10 | 67.24125 | 78.30600 | 21020 ft | 260 kts | 29° |
| 2026-04-16 15:10 | 67.25655 | 78.33117 | 21021 ft | 261 kts | 29° |
| 2026-04-16 15:11 | 67.27167 | 78.35604 | 21022 ft | 261 kts | 29° |
| 2026-04-16 15:11 | 67.28709 | 78.38106 | 21023 ft | 262 kts | 29° |
| 2026-04-16 15:11 | 67.30261 | 78.40590 | 21023 ft | 263 kts | 28° |
| 2026-04-16 15:11 | 67.31809 | 78.43103 | 21023 ft | 263 kts | 29° |
| 2026-04-16 15:12 | 67.33358 | 78.45655 | 21023 ft | 264 kts | 30° |
| 2026-04-16 15:12 | 67.34894 | 78.48247 | 21023 ft | 265 kts | 30° |
| 2026-04-16 15:12 | 67.36435 | 78.50882 | 21024 ft | 265 kts | 30° |
| 2026-04-16 15:12 | 67.37976 | 78.53526 | 21024 ft | 266 kts | 30° |
| 2026-04-16 15:13 | 67.39523 | 78.56184 | 21024 ft | 266 kts | 30° |
| 2026-04-16 15:13 | 67.41073 | 78.58816 | 21024 ft | 267 kts | 30° |
| 2026-04-16 15:13 | 67.42635 | 78.61420 | 21025 ft | 267 kts | 30° |
| 2026-04-16 15:13 | 67.44211 | 78.63990 | 21025 ft | 267 kts | 29° |
| 2026-04-16 15:14 | 67.45738 | 78.66736 | 20994 ft | 270 kts | 38° |
| 2026-04-16 15:14 | 67.47037 | 78.70416 | 21012 ft | 273 kts | 47° |
| 2026-04-16 15:14 | 67.48148 | 78.74357 | 21021 ft | 274 kts | 50° |
| 2026-04-16 15:14 | 67.49227 | 78.78534 | 21023 ft | 275 kts | 52° |
| 2026-04-16 15:15 | 67.50265 | 78.82747 | 21024 ft | 276 kts | 53° |
| 2026-04-16 15:15 | 67.51268 | 78.86934 | 21024 ft | 276 kts | 53° |
| 2026-04-16 15:15 | 67.52280 | 78.91196 | 21024 ft | 276 kts | 53° |
| 2026-04-16 15:15 | 67.53314 | 78.95520 | 21024 ft | 277 kts | 53° |
| 2026-04-16 15:16 | 67.54328 | 78.99790 | 21024 ft | 277 kts | 53° |
| 2026-04-16 15:16 | 67.55354 | 79.04045 | 21024 ft | 276 kts | 52° |
| 2026-04-16 15:16 | 67.56435 | 79.08195 | 21024 ft | 276 kts | 50° |
| 2026-04-16 15:16 | 67.57548 | 79.12290 | 21024 ft | 276 kts | 50° |
| 2026-04-16 15:17 | 67.58673 | 79.16365 | 21024 ft | 276 kts | 50° |
| 2026-04-16 15:17 | 67.59779 | 79.20382 | 21024 ft | 276 kts | 50° |
| 2026-04-16 15:17 | 67.60893 | 79.24485 | 21024 ft | 276 kts | 50° |
| 2026-04-16 15:17 | 67.61999 | 79.28622 | 21024 ft | 276 kts | 51° |
| 2026-04-16 15:18 | 67.63087 | 79.32776 | 21024 ft | 277 kts | 51° |
| 2026-04-16 15:18 | 67.64175 | 79.36953 | 21024 ft | 277 kts | 51° |
| 2026-04-16 15:18 | 67.65260 | 79.41126 | 21024 ft | 277 kts | 51° |
| 2026-04-16 15:18 | 67.66343 | 79.45299 | 21024 ft | 277 kts | 51° |
| 2026-04-16 15:19 | 67.67425 | 79.49490 | 21024 ft | 277 kts | 52° |
| 2026-04-16 15:19 | 67.68494 | 79.53708 | 21024 ft | 277 kts | 52° |
| 2026-04-16 15:19 | 67.69554 | 79.57930 | 21023 ft | 277 kts | 52° |
| 2026-04-16 15:19 | 67.70612 | 79.62157 | 21023 ft | 277 kts | 52° |
| 2026-04-16 15:20 | 67.71663 | 79.66411 | 21023 ft | 277 kts | 53° |
| 2026-04-16 15:20 | 67.72708 | 79.70669 | 21023 ft | 277 kts | 53° |
| 2026-04-16 15:20 | 67.73758 | 79.74922 | 21023 ft | 276 kts | 53° |
| 2026-04-16 15:20 | 67.74798 | 79.79189 | 21023 ft | 276 kts | 53° |
| 2026-04-16 15:21 | 67.75844 | 79.83442 | 21023 ft | 276 kts | 53° |
| 2026-04-16 15:21 | 67.76886 | 79.87701 | 21023 ft | 276 kts | 53° |
| 2026-04-16 15:21 | 67.77935 | 79.91941 | 21022 ft | 276 kts | 52° |
| 2026-04-16 15:21 | 67.78983 | 79.96186 | 21022 ft | 276 kts | 52° |
| 2026-04-16 15:22 | 67.80027 | 80.00440 | 21022 ft | 276 kts | 53° |
| 2026-04-16 15:22 | 67.81080 | 80.04665 | 21021 ft | 275 kts | 51° |
| 2026-04-16 15:22 | 67.82188 | 80.08779 | 21021 ft | 274 kts | 50° |
| 2026-04-16 15:22 | 67.83314 | 80.12864 | 21021 ft | 274 kts | 50° |
| 2026-04-16 15:23 | 67.84433 | 80.16950 | 21021 ft | 274 kts | 50° |
| 2026-04-16 15:23 | 67.85541 | 80.21063 | 21021 ft | 274 kts | 51° |
| 2026-04-16 15:23 | 67.86636 | 80.25208 | 21021 ft | 275 kts | 51° |
| 2026-04-16 15:23 | 67.87722 | 80.29373 | 21020 ft | 275 kts | 51° |
| 2026-04-16 15:24 | 67.88795 | 80.33574 | 21020 ft | 275 kts | 52° |
| 2026-04-16 15:24 | 67.89862 | 80.37790 | 21020 ft | 275 kts | 52° |
| 2026-04-16 15:24 | 67.90916 | 80.42036 | 21019 ft | 275 kts | 53° |
| 2026-04-16 15:24 | 67.91957 | 80.46302 | 21019 ft | 276 kts | 53° |
| 2026-04-16 15:25 | 67.92995 | 80.50586 | 21019 ft | 276 kts | 53° |
| 2026-04-16 15:25 | 67.94020 | 80.54899 | 21018 ft | 276 kts | 54° |
| 2026-04-16 15:25 | 67.95037 | 80.59237 | 21018 ft | 276 kts | 54° |
| 2026-04-16 15:25 | 67.96052 | 80.63583 | 21018 ft | 277 kts | 54° |
| 2026-04-16 15:26 | 67.97076 | 80.67916 | 21018 ft | 277 kts | 53° |
| 2026-04-16 15:26 | 67.98114 | 80.72236 | 21017 ft | 277 kts | 53° |
| 2026-04-16 15:26 | 67.99158 | 80.76548 | 21017 ft | 277 kts | 53° |
| 2026-04-16 15:26 | 68.00218 | 80.80835 | 21017 ft | 277 kts | 52° |
| 2026-04-16 15:27 | 68.01220 | 80.85238 | 21017 ft | 278 kts | 56° |
| 2026-04-16 15:27 | 68.02142 | 80.89785 | 21017 ft | 279 kts | 58° |
| 2026-04-16 15:27 | 68.03034 | 80.94382 | 21018 ft | 279 kts | 59° |
| 2026-04-16 15:27 | 68.03916 | 80.98993 | 21018 ft | 279 kts | 59° |
| 2026-04-16 15:28 | 68.04804 | 81.03599 | 21016 ft | 279 kts | 58° |
| 2026-04-16 15:28 | 68.05754 | 81.08105 | 21017 ft | 278 kts | 56° |
| 2026-04-16 15:28 | 68.06736 | 81.12553 | 21016 ft | 278 kts | 56° |
| 2026-04-16 15:28 | 68.07720 | 81.17004 | 21017 ft | 278 kts | 56° |
| 2026-04-16 15:29 | 68.08700 | 81.21473 | 21016 ft | 278 kts | 56° |
| 2026-04-16 15:29 | 68.09679 | 81.25943 | 21016 ft | 278 kts | 56° |
| 2026-04-16 15:29 | 68.10659 | 81.30416 | 21016 ft | 279 kts | 56° |
| 2026-04-16 15:29 | 68.11629 | 81.34914 | 21015 ft | 279 kts | 56° |
| 2026-04-16 15:30 | 68.12590 | 81.39431 | 21015 ft | 279 kts | 57° |
| 2026-04-16 15:30 | 68.13551 | 81.43958 | 21015 ft | 279 kts | 57° |
| 2026-04-16 15:30 | 68.14512 | 81.48492 | 21015 ft | 280 kts | 57° |
| 2026-04-16 15:30 | 68.15473 | 81.53029 | 21014 ft | 280 kts | 57° |
| 2026-04-16 15:31 | 68.16435 | 81.57570 | 21015 ft | 280 kts | 57° |
| 2026-04-16 15:31 | 68.17386 | 81.62134 | 21014 ft | 280 kts | 57° |
| 2026-04-16 15:31 | 68.18329 | 81.66715 | 21014 ft | 280 kts | 57° |
| 2026-04-16 15:31 | 68.19270 | 81.71315 | 21014 ft | 281 kts | 58° |
| 2026-04-16 15:32 | 68.20209 | 81.75915 | 21014 ft | 281 kts | 58° |
| 2026-04-16 15:32 | 68.21143 | 81.80533 | 21014 ft | 281 kts | 58° |
| 2026-04-16 15:32 | 68.22078 | 81.85154 | 21014 ft | 281 kts | 58° |
| 2026-04-16 15:32 | 68.23001 | 81.89805 | 21013 ft | 281 kts | 58° |
| 2026-04-16 15:33 | 68.23919 | 81.94463 | 21013 ft | 282 kts | 58° |
| 2026-04-16 15:33 | 68.24837 | 81.99127 | 21013 ft | 282 kts | 58° |
| 2026-04-16 15:33 | 68.25756 | 82.03795 | 21013 ft | 282 kts | 58° |
| 2026-04-16 15:33 | 68.26728 | 82.08386 | 21012 ft | 281 kts | 56° |
| 2026-04-16 15:34 | 68.27743 | 82.12894 | 21013 ft | 281 kts | 55° |
| 2026-04-16 15:34 | 68.28774 | 82.17382 | 21013 ft | 281 kts | 55° |
| 2026-04-16 15:34 | 68.29796 | 82.21888 | 21013 ft | 282 kts | 55° |
| 2026-04-16 15:34 | 68.30814 | 82.26410 | 21013 ft | 282 kts | 55° |
| 2026-04-16 15:35 | 68.31832 | 82.30939 | 21013 ft | 282 kts | 55° |
| 2026-04-16 15:35 | 68.32836 | 82.35491 | 21013 ft | 282 kts | 56° |
| 2026-04-16 15:35 | 68.33828 | 82.40066 | 21013 ft | 282 kts | 56° |
| 2026-04-16 15:35 | 68.34816 | 82.44651 | 21012 ft | 282 kts | 56° |
| 2026-04-16 15:36 | 68.35803 | 82.49241 | 21012 ft | 282 kts | 56° |
| 2026-04-16 15:36 | 68.36790 | 82.53827 | 21012 ft | 282 kts | 56° |
| 2026-04-16 15:36 | 68.37764 | 82.58437 | 21012 ft | 282 kts | 57° |
| 2026-04-16 15:36 | 68.38729 | 82.63071 | 21012 ft | 282 kts | 57° |
| 2026-04-16 15:37 | 68.39689 | 82.67705 | 21012 ft | 282 kts | 57° |
| 2026-04-16 15:37 | 68.40638 | 82.72366 | 21012 ft | 282 kts | 58° |
| 2026-04-16 15:37 | 68.41575 | 82.77045 | 21012 ft | 282 kts | 58° |
| 2026-04-16 15:37 | 68.42509 | 82.81734 | 21011 ft | 282 kts | 58° |
| 2026-04-16 15:38 | 68.43441 | 82.86422 | 21011 ft | 282 kts | 58° |
| 2026-04-16 15:38 | 68.44372 | 82.91110 | 21011 ft | 282 kts | 58° |
| 2026-04-16 15:38 | 68.45307 | 82.95807 | 21011 ft | 282 kts | 58° |
| 2026-04-16 15:38 | 68.46244 | 83.00495 | 21011 ft | 282 kts | 58° |
| 2026-04-16 15:39 | 68.47187 | 83.05169 | 21010 ft | 282 kts | 57° |
| 2026-04-16 15:39 | 68.48178 | 83.09761 | 21010 ft | 281 kts | 56° |
| 2026-04-16 15:39 | 68.49195 | 83.14314 | 21010 ft | 281 kts | 55° |
| 2026-04-16 15:39 | 68.50221 | 83.18846 | 21010 ft | 281 kts | 55° |
| 2026-04-16 15:40 | 68.51241 | 83.23391 | 21010 ft | 281 kts | 56° |
| 2026-04-16 15:40 | 68.52251 | 83.27956 | 21009 ft | 281 kts | 56° |
| 2026-04-16 15:40 | 68.53261 | 83.32532 | 21009 ft | 281 kts | 56° |
| 2026-04-16 15:40 | 68.54261 | 83.37124 | 21009 ft | 281 kts | 57° |
| 2026-04-16 15:41 | 68.55247 | 83.41737 | 21009 ft | 281 kts | 57° |
| 2026-04-16 15:41 | 68.56230 | 83.46366 | 21009 ft | 282 kts | 57° |
| 2026-04-16 15:41 | 68.57210 | 83.50994 | 21009 ft | 282 kts | 57° |
| 2026-04-16 15:41 | 68.58191 | 83.55631 | 21009 ft | 282 kts | 57° |
| 2026-04-16 15:42 | 68.59168 | 83.60276 | 21008 ft | 282 kts | 57° |
| 2026-04-16 15:42 | 68.60134 | 83.64954 | 21008 ft | 282 kts | 58° |
| 2026-04-16 15:42 | 68.61092 | 83.69635 | 21009 ft | 282 kts | 58° |
| 2026-04-16 15:42 | 68.62048 | 83.74325 | 21007 ft | 282 kts | 58° |
| 2026-04-16 15:43 | 68.62990 | 83.79044 | 21007 ft | 282 kts | 58° |
| 2026-04-16 15:43 | 68.63922 | 83.83782 | 21007 ft | 282 kts | 59° |
| 2026-04-16 15:43 | 68.64852 | 83.88526 | 21007 ft | 283 kts | 59° |
| 2026-04-16 15:43 | 68.65784 | 83.93282 | 21007 ft | 283 kts | 59° |
| 2026-04-16 15:44 | 68.66715 | 83.98034 | 21007 ft | 283 kts | 59° |
| 2026-04-16 15:44 | 68.67648 | 84.02785 | 21007 ft | 283 kts | 59° |
| 2026-04-16 15:44 | 68.68626 | 84.07466 | 21006 ft | 282 kts | 56° |
| 2026-04-16 15:44 | 68.69643 | 84.12079 | 21007 ft | 282 kts | 56° |
| 2026-04-16 15:45 | 68.70668 | 84.16682 | 21007 ft | 282 kts | 56° |
| 2026-04-16 15:45 | 68.71683 | 84.21306 | 21007 ft | 282 kts | 56° |
| 2026-04-16 15:45 | 68.72692 | 84.25949 | 21007 ft | 282 kts | 56° |
| 2026-04-16 15:45 | 68.73693 | 84.30601 | 21007 ft | 283 kts | 57° |
| 2026-04-16 15:46 | 68.74680 | 84.35290 | 21007 ft | 283 kts | 57° |
| 2026-04-16 15:46 | 68.75657 | 84.39988 | 21007 ft | 283 kts | 57° |
| 2026-04-16 15:46 | 68.76632 | 84.44702 | 21007 ft | 283 kts | 57° |
| 2026-04-16 15:46 | 68.77594 | 84.49432 | 21007 ft | 283 kts | 58° |
| 2026-04-16 15:47 | 68.78546 | 84.54185 | 21007 ft | 283 kts | 58° |
| 2026-04-16 15:47 | 68.79492 | 84.58947 | 21006 ft | 283 kts | 58° |
| 2026-04-16 15:47 | 68.80422 | 84.63736 | 21006 ft | 283 kts | 59° |
| 2026-04-16 15:47 | 68.81032 | 84.66909 | 20998 ft | 283 kts | 59° |
| 2026-04-16 15:48 | 68.81938 | 84.71660 | 20841 ft | 274 kts | 59° |
| 2026-04-16 15:48 | 68.82817 | 84.76282 | 20524 ft | 270 kts | 59° |
| 2026-04-16 15:48 | 68.83701 | 84.80924 | 20007 ft | 274 kts | 59° |
| 2026-04-16 15:48 | 68.84594 | 84.85593 | 19618 ft | 274 kts | 59° |
| 2026-04-16 15:49 | 68.85775 | 84.91750 | 19165 ft | 272 kts | 59° |
| 2026-04-16 15:49 | 68.86371 | 84.94876 | 18939 ft | 271 kts | 59° |
| 2026-04-16 15:49 | 68.87253 | 84.99483 | 18606 ft | 270 kts | 59° |
| 2026-04-16 15:49 | 68.88141 | 85.04058 | 18270 ft | 268 kts | 58° |
| 2026-04-16 15:50 | 68.89082 | 85.08509 | 17933 ft | 267 kts | 57° |
| 2026-04-16 15:50 | 68.90034 | 85.12922 | 17605 ft | 266 kts | 57° |
| 2026-04-16 15:50 | 68.90971 | 85.17313 | 17283 ft | 264 kts | 57° |
| 2026-04-16 15:50 | 68.91898 | 85.21713 | 16960 ft | 263 kts | 58° |
| 2026-04-16 15:51 | 68.92805 | 85.26102 | 16640 ft | 261 kts | 58° |
| 2026-04-16 15:51 | 68.93697 | 85.30488 | 16322 ft | 260 kts | 58° |
| 2026-04-16 15:51 | 68.94570 | 85.34875 | 16005 ft | 259 kts | 59° |
| 2026-04-16 15:51 | 68.95435 | 85.39243 | 15685 ft | 257 kts | 59° |
| 2026-04-16 15:52 | 68.96283 | 85.43624 | 15361 ft | 256 kts | 60° |
| 2026-04-16 15:52 | 68.97120 | 85.48000 | 15007 ft | 256 kts | 60° |
| 2026-04-16 15:52 | 68.97958 | 85.52377 | 14647 ft | 257 kts | 60° |
| 2026-04-16 15:52 | 68.98791 | 85.56775 | 14297 ft | 257 kts | 60° |
| 2026-04-16 15:53 | 68.99613 | 85.61190 | 13958 ft | 256 kts | 61° |
| 2026-04-16 15:53 | 69.00421 | 85.65612 | 13624 ft | 255 kts | 62° |
| 2026-04-16 15:53 | 69.01205 | 85.69971 | 13297 ft | 254 kts | 62° |
| 2026-04-16 15:53 | 69.02001 | 85.74367 | 12969 ft | 253 kts | 62° |
| 2026-04-16 15:54 | 69.02793 | 85.78736 | 12644 ft | 252 kts | 61° |
| 2026-04-16 15:54 | 69.03591 | 85.83077 | 12317 ft | 251 kts | 62° |
| 2026-04-16 15:54 | 69.04385 | 85.87401 | 11988 ft | 249 kts | 61° |
| 2026-04-16 15:54 | 69.05185 | 85.91678 | 11662 ft | 248 kts | 61° |
| 2026-04-16 15:55 | 69.05986 | 85.95951 | 11333 ft | 247 kts | 61° |
| 2026-04-16 15:55 | 69.06772 | 86.00199 | 11005 ft | 246 kts | 62° |
| 2026-04-16 15:55 | 69.07558 | 86.04430 | 10672 ft | 244 kts | 62° |
| 2026-04-16 15:55 | 69.08345 | 86.08630 | 10333 ft | 243 kts | 62° |
| 2026-04-16 15:56 | 69.09133 | 86.12798 | 9995 ft | 242 kts | 62° |
| 2026-04-16 15:56 | 69.09923 | 86.16942 | 9655 ft | 240 kts | 62° |
| 2026-04-16 15:56 | 69.10708 | 86.21065 | 9315 ft | 239 kts | 62° |
| 2026-04-16 15:56 | 69.11480 | 86.25173 | 8973 ft | 238 kts | 63° |
| 2026-04-16 15:57 | 69.12239 | 86.29279 | 8626 ft | 236 kts | 64° |
| 2026-04-16 15:57 | 69.12942 | 86.33428 | 8275 ft | 235 kts | 66° |
| 2026-04-16 15:57 | 69.13583 | 86.37630 | 7924 ft | 234 kts | 68° |
| 2026-04-16 15:57 | 69.14196 | 86.41838 | 7576 ft | 232 kts | 68° |
| 2026-04-16 15:58 | 69.14800 | 86.46027 | 7227 ft | 230 kts | 68° |
| 2026-04-16 15:58 | 69.15398 | 86.50167 | 6876 ft | 228 kts | 68° |
| 2026-04-16 15:58 | 69.15993 | 86.54266 | 6518 ft | 225 kts | 68° |
| 2026-04-16 15:58 | 69.16581 | 86.58311 | 6149 ft | 223 kts | 68° |
| 2026-04-16 15:59 | 69.17742 | 86.66269 | 5383 ft | 218 kts | 68° |
| 2026-04-16 15:59 | 69.18317 | 86.70193 | 4990 ft | 216 kts | 68° |
| 2026-04-16 15:59 | 69.18760 | 86.74203 | 4488 ft | 218 kts | 81° |
| 2026-04-16 16:00 | 69.18642 | 86.78515 | 3877 ft | 224 kts | 103° |
| 2026-04-16 16:00 | 69.18108 | 86.82586 | 3524 ft | 220 kts | 112° |
| 2026-04-16 16:00 | 69.17447 | 86.86490 | 3043 ft | 222 kts | 115° |
| 2026-04-16 16:00 | 69.16760 | 86.90256 | 2801 ft | 211 kts | 116° |
| 2026-04-16 16:01 | 69.16097 | 86.93823 | 2569 ft | 201 kts | 115° |
| 2026-04-16 16:01 | 69.15505 | 86.97218 | 2496 ft | 184 kts | 111° |
| 2026-04-16 16:01 | 69.15381 | 87.00593 | 2415 ft | 169 kts | 82° |
| 2026-04-16 16:01 | 69.15863 | 87.03482 | 2408 ft | 161 kts | 54° |
| 2026-04-16 16:02 | 69.16508 | 87.05875 | 2456 ft | 150 kts | 53° |
| 2026-04-16 16:02 | 69.17145 | 87.08143 | 2429 ft | 146 kts | 51° |
| 2026-04-16 16:02 | 69.17815 | 87.10211 | 2414 ft | 144 kts | 46° |
| 2026-04-16 16:02 | 69.18559 | 87.12080 | 2410 ft | 146 kts | 40° |
| 2026-04-16 16:03 | 69.19416 | 87.13765 | 2429 ft | 151 kts | 34° |
| 2026-04-16 16:03 | 69.20324 | 87.15204 | 2437 ft | 154 kts | 30° |
| 2026-04-16 16:03 | 69.21299 | 87.16571 | 2365 ft | 159 kts | 28° |
| 2026-04-16 16:03 | 69.22255 | 87.17897 | 2235 ft | 146 kts | 28° |
| 2026-04-16 16:04 | 69.23124 | 87.19298 | 1931 ft | 144 kts | 31° |
| 2026-04-16 16:04 | 69.23962 | 87.20777 | 1618 ft | 141 kts | 34° |
| 2026-04-16 16:04 | 69.24755 | 87.22263 | 1398 ft | 135 kts | 32° |
| 2026-04-16 16:04 | 69.25565 | 87.23721 | 1233 ft | 141 kts | 31° |
| 2026-04-16 16:05 | 69.26419 | 87.25083 | 1152 ft | 141 kts | 27° |
| 2026-04-16 16:05 | 69.27255 | 87.26465 | 1102 ft | 136 kts | 31° |
| 2026-04-16 16:05 | 69.28011 | 87.27914 | 948 ft | 129 kts | 32° |
| 2026-04-16 16:05 | 69.28773 | 87.29223 | 783 ft | 129 kts | 28° |
| 2026-04-16 16:06 | 69.29536 | 87.30531 | 643 ft | 128 kts | 28° |
| 2026-04-16 16:06 | 69.30288 | 87.31833 | 572 ft | 121 kts | 30° |
| 2026-04-16 16:06 | 69.30912 | 87.32914 | 582 ft | 80 kts | 31° |
| 2026-04-16 16:06 | 69.31171 | 87.33367 | 587 ft | 5 kts | 31° |
| 2026-04-16 16:07 | 69.31176 | 87.33376 | 587 ft | 4 kts | 31° |
| 2026-04-16 16:07 | 69.31211 | 87.33439 | 588 ft | 8 kts | 33° |
| 2026-04-16 16:07 | 69.31261 | 87.33526 | 590 ft | 9 kts | 31° |
| 2026-04-16 16:07 | 69.31316 | 87.33622 | 592 ft | 10 kts | 32° |
| 2026-04-16 16:08 | 69.31376 | 87.33727 | 594 ft | 12 kts | 31° |
| 2026-04-16 16:08 | 69.31472 | 87.33895 | 596 ft | 19 kts | 32° |
| 2026-04-16 16:08 | 69.31593 | 87.34103 | 599 ft | 21 kts | 31° |
| 2026-04-16 16:08 | 69.31708 | 87.34306 | 602 ft | 18 kts | 32° |
| 2026-04-16 16:09 | 69.31809 | 87.34483 | 603 ft | 16 kts | 32° |
| 2026-04-16 16:09 | 69.31903 | 87.34645 | 602 ft | 15 kts | 31° |
| 2026-04-16 16:09 | 69.31955 | 87.34603 | 600 ft | 11 kts | 308° |
| 2026-04-16 16:09 | 69.31998 | 87.34413 | 602 ft | 9 kts | 302° |
| 2026-04-16 16:10 | 69.32025 | 87.34298 | 603 ft | 5 kts | 306° |
| 2026-04-16 16:10 | 69.32041 | 87.34274 | 603 ft | 1 kts | 3° |
| 2026-04-16 16:10 | 69.32062 | 87.34300 | 603 ft | 7 kts | 25° |
| 2026-04-16 16:10 | 69.32094 | 87.34329 | 604 ft | 2 kts | 355° |
| 2026-04-16 16:11 | 69.32133 | 87.34303 | 604 ft | 6 kts | 348° |
| 2026-04-16 16:11 | 69.32137 | 87.34300 | 604 ft | 0 kts | 349° |